Tiempo atmosférico en la estación meteorológica de Almadén de la Plata, Sevilla (450 m.)



Fecha
DESCASC
Temp. máxima en grados centígrados (hora)
DESCASC
Temp. mínima en grados centígrados (hora)
DESCASC
Temp. media en grados centígrados
DESCASC
Racha de viento máxima en m/sg (hora)
DESCASC
Velocidad máxima media en intervalos de 10 minutos(hora)
DESCASC
Precipitaciones diarias en mm
DESCASC
Precipitaciones de 00:00 a 06:00 en mm
DESCASC
Precipitaciones de 06:00 a 12:00 en mm
DESCASC
Precipitaciones de 12:00 a 18:00 en mm
DESCASC
Precipitaciones de 18:00 a 24:00 en mm
DESCASC
16-06-2019 28.4 (16:40) 15.5 (07:10) 21.9 9.72 (19:20) 3.61 (19:20) 0 0 0 0 0
15-06-2019 28.8 (18:50) 11 (07:10) 19.9 6.11 (19:10) 2.78 (19:20) 0 0 0 0 0
14-06-2019 23 (19:20) 10.5 (07:20) 16.8 8.89 (15:00) 4.44 (16:30) 0 0 0 0 0
13-06-2019 27.9 (18:40) 11.5 (00:00) 19.7 7.78 (20:10) 4.17 (20:10) 0 0 0 0 0
12-06-2019 28.8 (17:40) 14 (00:00) 21.4 7.5 (15:50) 3.61 (14:10) 0 0 0 0 0
11-06-2019 28.1 (17:40) 11.8 (00:00) 20 9.44 (17:20) 4.44 (16:00) 0 0 0 0 0
10-06-2019 29.1 (18:40) 12.7 (00:00) 20.9 6.67 (15:50) 3.61 (20:20) 0 0 0 0 0
09-06-2019 28.1 (17:40) 12.3 (00:00) 20.2 10 (19:30) 5.28 (20:20) 0 0 0 0 0
08-06-2019 30.1 (17:00) 12.2 (00:00) 21.2 8.89 (19:00) 3.89 (18:50) 0 0 0 0 0
07-06-2019 26.3 (18:40) 11.3 (00:00) 18.8 9.72 (03:50) 4.72 (03:50) 0 0 0 0 0
06-06-2019 25.3 (17:40) 9.7 (00:00) 17.5 9.72 (17:40) 3.89 (14:50) 0 0 0 0 0
05-06-2019 23.6 (18:40) 10.4 (00:00) 17 10 (03:00) 5.28 (11:50) 0 0 0 0 0
04-06-2019 29.8 (16:20) 15.4 (00:00) 22.6 10.83 (22:10) 5.83 (22:10) 0 0 0 0 0
03-06-2019 34.3 (17:10) 16.6 (00:00) 25.4 8.33 (19:50) 3.89 (20:20) 0 0 0 0 0
02-06-2019 34.7 (17:50) 16 (00:00) 25.4 7.5 (18:50) 2.78 (14:40) 0 0 0 0 0
01-06-2019 32.6 (17:20) 16.1 (00:00) 24.3 8.61 (16:30) 4.44 (13:30) 0 0 0 0 0
31-05-2019 31.6 (17:40) 14.1 (00:00) 22.9 9.44 (14:10) 4.44 (14:00) 0 0 0 0 0
30-05-2019 30.9 (17:20) 15.9 (00:00) 23.4 9.72 (11:00) 5.28 (09:30) 0 0 0 0 0
29-05-2019 34.2 (18:40) 19.6 (00:00) 26.9 9.17 (14:20) 4.72 (11:00) 0 0 0 0 0
28-05-2019 35.3 (17:30) 17.7 (00:00) 26.5 7.78 (15:30) 3.33 (00:10) 0 0 0 0 0
27-05-2019 33.4 (18:00) 17.9 (00:00) 25.7 8.06 (19:20) 4.17 (19:20) 0 0 0 0 0
26-05-2019 32.8 (18:20) 15.8 (00:00) 24.3 7.78 (13:50) 3.33 (16:50) 0 0 0 0 0
25-05-2019 30.2 (16:40) 15 (00:00) 22.6 7.78 (17:00) 2.78 (15:50) 0 0 0 0 0
24-05-2019 30.1 (17:40) 12.9 (00:00) 21.5 8.06 (15:20) 3.89 (16:30) 0 0 0 0 0
23-05-2019 30.3 (16:20) 14.6 (00:00) 22.4 8.06 (19:50) 4.17 (19:20) 0 0 0 0 0
22-05-2019 29.3 (17:50) 12.8 (00:00) 21 6.39 (13:20) 2.78 (14:40) 0 0 0 0 0

Gráficas

Temp. máximas Temp. mínimas Temp. medias Precipitaciones Rachas de viento máximas Velocidades máximas media en intervalos de 10 minutos

Datos horarios

Fecha y hora oficial Temperatura (ºC) Velocidad del viento (km/h) Dirección del viento Racha (km/h) Dirección de racha Precipitación (mm) Presión (hPa) Tendencia (hPa) Humedad (%)
2019-06-20 23:00:00 21.2 10 Noroeste 19 Oeste 0 -- -- 47
2019-06-20 22:00:00 23.2 10 Noroeste 23 Oeste 0 -- -- 41
2019-06-20 21:00:00 26.1 13 Noroeste 27 Noroeste 0 -- -- 36
2019-06-20 20:00:00 27.9 10 Noroeste 25 Noroeste 0 -- -- 34
2019-06-20 19:00:00 27.4 2 Noroeste 24 Oeste 0 -- -- 35
2019-06-20 18:00:00 27.7 9 Oeste 26 Oeste 0 -- -- 35
2019-06-20 17:00:00 27.5 7 Noroeste 23 Sudoeste 0 -- -- 37
2019-06-20 16:00:00 26.3 7 Sudoeste 19 Sudoeste 0 -- -- 39
2019-06-20 15:00:00 25.7 9 Oeste 20 Sudoeste 0 -- -- 40
2019-06-20 14:00:00 24.8 7 Sudoeste 21 Sudoeste 0 -- -- 43
2019-06-20 13:00:00 24.1 10 Sur 22 Sur 0 -- -- 48
2019-06-20 12:00:00 22.9 10 Sudoeste 19 Sudoeste 0 -- -- 53
2019-06-20 11:00:00 22 8 Sur 16 Sudeste 0 -- -- 55
2019-06-20 10:00:00 20.1 3 Oeste 6 Noroeste 0 -- -- 62
2019-06-20 09:00:00 18 4 Noroeste 6 Noroeste 0 -- -- 72
2019-06-20 08:00:00 16 0 Calma 8 Oeste 0 -- -- 80
2019-06-20 07:00:00 15.9 3 Noroeste 11 Noroeste 0 -- -- 78
2019-06-20 06:00:00 16.3 4 Noroeste 11 Noroeste 0 -- -- 77
2019-06-20 05:00:00 16.3 6 Noroeste 13 Noroeste 0 -- -- 76
2019-06-20 04:00:00 16.5 3 Noroeste 6 Noroeste 0 -- -- 74
2019-06-20 03:00:00 17.2 4 Noroeste 7 Noroeste 0 -- -- 72
2019-06-20 02:00:00 18.8 3 Norte 13 Noroeste 0 -- -- 67
2019-06-20 01:00:00 19 4 Noroeste 12 Oeste 0 -- -- 69
2019-06-20 00:00:00 20.3 6 Oeste 13 Sudoeste 0 -- -- 67
2019-06-19 23:00:00 21.4 6 Sudoeste 19 Sudoeste 0 -- -- 62
2019-06-19 22:00:00 23.4 9 Sudoeste 23 Sudoeste 0 -- -- 55
2019-06-19 21:00:00 27.1 9 Noroeste 19 Noroeste 0 -- -- 35
2019-06-19 20:00:00 28.3 9 Noroeste 19 Noroeste 0 -- -- 33
2019-06-19 19:00:00 28.5 6 Sudoeste 25 Oeste 0 -- -- 33
2019-06-19 18:00:00 28.5 9 Sudoeste 24 Noroeste 0 -- -- 33
2019-06-19 17:00:00 27.9 7 Oeste 25 Oeste 0 -- -- 35
2019-06-19 16:00:00 27.1 8 Sudoeste 23 Sudoeste 0 -- -- 37
2019-06-19 15:00:00 26.1 6 Noroeste 22 Oeste 0 -- -- 41
2019-06-19 14:00:00 24.1 10 Noroeste 23 Oeste 0 -- -- 47
2019-06-19 13:00:00 23.5 7 Sudoeste 18 Noroeste 0 -- -- 49
2019-06-19 12:00:00 21.2 3 Sudoeste 12 Oeste 0 -- -- 56
2019-06-19 11:00:00 19.2 3 Noroeste 12 Noroeste 0 -- -- 69
2019-06-19 10:00:00 17.2 2 Nordeste 10 Este 0 -- -- 87
2019-06-19 09:00:00 15.2 0 Calma 5 Este 0 -- -- 98
2019-06-19 08:00:00 14.2 0 Calma 2 Norte 0 -- -- 98
2019-06-19 07:00:00 13.6 0 Calma 5 Sudoeste 0 -- -- 95
2019-06-19 06:00:00 14 0 Calma 7 Sur 0 -- -- 95
2019-06-19 05:00:00 14.8 0 Calma 8 Oeste 0 -- -- 93
2019-06-19 04:00:00 15.3 4 Sudoeste 14 Sudoeste 0 -- -- 93
2019-06-19 03:00:00 15.8 6 Sudoeste 12 Sudoeste 0 -- -- 92
2019-06-19 02:00:00 16.3 4 Oeste 14 Oeste 0 -- -- 90
2019-06-19 01:00:00 17 9 Sudoeste 17 Oeste 0 -- -- 84
2019-06-19 00:00:00 17.6 5 Sudoeste 17 Sudoeste 0 -- -- 81
2019-06-18 23:00:00 19.1 7 Sudoeste 14 Sur 0 -- -- 73
2019-06-18 22:00:00 20.8 5 Sudoeste 17 Sudoeste 0 -- -- 64
2019-06-18 21:00:00 23.1 7 Sudoeste 23 Sudoeste 0 -- -- 55
2019-06-18 20:00:00 23.7 12 Oeste 31 Sudoeste 0 -- -- 54
2019-06-18 19:00:00 24.5 13 Oeste 28 Sudoeste 0 -- -- 52
2019-06-18 18:00:00 25.4 14 Oeste 27 Oeste 0 -- -- 49
2019-06-18 17:00:00 25.7 13 Sudoeste 29 Oeste 0 -- -- 46
2019-06-18 16:00:00 25.5 10 Oeste 32 Sur 0 -- -- 46
2019-06-18 15:00:00 25.3 11 Sudoeste 27 Sudoeste 0 -- -- 45
2019-06-18 14:00:00 24 9 Sudoeste 25 Sudoeste 0 -- -- 44
2019-06-18 13:00:00 22.4 10 Oeste 24 Sudoeste 0 -- -- 45
2019-06-18 12:00:00 20.7 9 Sur 23 Sudeste 0 -- -- 49
2019-06-18 11:00:00 18.9 9 Sudoeste 18 Sudoeste 0 -- -- 57
2019-06-18 10:00:00 16.2 6 Sur 14 Sur 0 -- -- 73
2019-06-18 09:00:00 12.7 6 Sur 15 Sudoeste 0 -- -- 91
2019-06-18 08:00:00 12 2 Sur 12 Sur 0 -- -- 91
2019-06-18 07:00:00 12.3 3 Sur 8 Sur 0 -- -- 59
2019-06-18 06:00:00 13.7 4 Sur 9 Sur 0 -- -- 40
2019-06-18 05:00:00 14 0 Calma 9 Sur 0 -- -- 27
2019-06-18 04:00:00 16.2 6 Sur 10 Sur 0 -- -- 26
2019-06-18 03:00:00 18.1 5 Sur 10 Sur 0 -- -- 17
2019-06-18 02:00:00 18.7 4 Sudoeste 10 Sudoeste 0 -- -- 20
2019-06-18 01:00:00 18.2 6 Sur 11 Sur 0 -- -- 27
2019-06-18 00:00:00 19.9 5 Sur 11 Sudoeste 0 -- -- 35
2019-06-17 23:00:00 21 4 Sudoeste 14 Sudoeste 0 -- -- 33
2019-06-17 22:00:00 22.2 6 Sudoeste 18 Sur 0 -- -- 29
2019-06-17 21:00:00 26.5 8 Sudoeste 25 Sudoeste 0 -- -- 23
2019-06-17 20:00:00 27.7 11 Sudoeste 25 Sur 0 -- -- 23
2019-06-17 19:00:00 28.4 13 Sudoeste 28 Oeste 0 -- -- 23
2019-06-17 18:00:00 28.6 13 Sudoeste 27 Sur 0 -- -- 30
2019-06-17 17:00:00 28.4 11 Sudoeste 27 Sur 0 -- -- 23
2019-06-17 16:00:00 27.4 13 Sur 32 Sur 0 -- -- 24
2019-06-17 15:00:00 26.8 12 Sur 25 Sur 0 -- -- 26
2019-06-17 14:00:00 26.4 8 Sur 25 Sur 0 -- -- 30
2019-06-17 13:00:00 25.1 9 Sur 19 Sur 0 -- -- 32
2019-06-17 12:00:00 23.6 9 Sur 22 Sudeste 0 -- -- 35
2019-06-17 11:00:00 21.6 6 Sur 20 Sudoeste -- -- -- 41
2019-06-17 10:00:00 20 7 Sudoeste 17 Sudoeste 0 -- -- 42
2019-06-17 09:00:00 16.1 2 Norte 8 Sudoeste 0 -- -- 53
2019-06-17 08:00:00 13.5 0 Calma 3 Norte 0 -- -- 60
2019-06-17 07:00:00 13 0 Calma 6 Sur 0 -- -- 56
2019-06-17 06:00:00 14.5 3 Sur 8 Sudeste 0 -- -- 51
2019-06-17 05:00:00 14.7 0 Calma 6 Sudoeste 0 -- -- 50
2019-06-17 04:00:00 15.6 2 Sudoeste 6 Oeste 0 -- -- 47
2019-06-17 03:00:00 15.9 2 Sudoeste 8 Oeste 0 -- -- 46
2019-06-17 02:00:00 16.6 2 Sudoeste 10 Sudoeste 0 -- -- 45
2019-06-17 01:00:00 17.6 0 Calma 11 Sudoeste 0 -- -- 41
2019-06-17 00:00:00 19.6 5 Sudoeste 16 Sudoeste 0 -- -- 36
2019-06-16 23:00:00 20.2 7 Sudoeste 13 Sudoeste 0 -- -- 36
2019-06-16 22:00:00 22.3 6 Sudoeste 20 Sudoeste 0 -- -- 33
2019-06-16 21:00:00 25.6 9 Sudoeste 25 Sudoeste 0 -- -- 27
2019-06-16 20:00:00 27.4 11 Sudoeste 35 Sur 0 -- -- 23
2019-06-16 19:00:00 27.9 11 Sur 28 Sur 0 -- -- 26
2019-06-16 18:00:00 28.3 10 Sudoeste 33 Sudoeste 0 -- -- 28
2019-06-16 17:00:00 28 10 Sur 24 Sudoeste 0 -- -- 25
2019-06-16 16:00:00 27 9 Sudoeste 24 Sudoeste 0 -- -- 29
2019-06-16 15:00:00 26.7 8 Sur 23 Sur 0 -- -- 32
2019-06-16 14:00:00 26.2 10 Sudeste 22 Sudeste 0 -- -- 32
2019-06-16 13:00:00 25 4 Sur 15 Sudeste 0 -- -- 30
2019-06-16 12:00:00 24 6 Este 18 Sudeste 0 -- -- 31
2019-06-16 11:00:00 24.4 10 Este 18 Este 0 -- -- 29
2019-06-16 10:00:00 21.7 8 Este 13 Este 0 -- -- 33
2019-06-16 09:00:00 17.9 0 Calma 4 Nordeste 0 -- -- 40
2019-06-16 08:00:00 16.1 0 Calma 5 Sudoeste 0 -- -- 44
2019-06-16 07:00:00 15.7 0 Calma 4 Noroeste 0 -- -- 40
2019-06-16 06:00:00 16.5 0 Calma 3 Sudeste 0 -- -- 38
2019-06-16 05:00:00 16.7 0 Calma 3 Sudeste 0 -- -- 38
2019-06-16 04:00:00 16.9 0 Calma 4 Este 0 -- -- 37
2019-06-16 03:00:00 17.2 0 Calma 5 Este 0 -- -- 37
2019-06-16 02:00:00 17.8 0 Calma 2 Sudeste 0 -- -- 38
2019-06-16 01:00:00 18.8 0 Calma 3 Nordeste 0 -- -- 39
2019-06-16 00:00:00 19.3 0 Calma 10 Sudoeste 0 -- -- 44
2019-06-15 23:00:00 21 7 Sur 12 Sudoeste 0 -- -- 40
2019-06-15 22:00:00 23.3 6 Sudoeste 15 Sur 0 -- -- 35
2019-06-15 21:00:00 26.3 6 Sudoeste 17 Sudoeste 0 -- -- 30
2019-06-15 20:00:00 28.4 5 Sudoeste 22 Noroeste 0 -- -- 21
2019-06-15 19:00:00 28.6 7 Noroeste 17 Noroeste 0 -- -- 21
2019-06-15 18:00:00 28.5 6 Nordeste 17 Nordeste 0 -- -- 24
2019-06-15 17:00:00 27.2 4 Norte 16 Noroeste 0 -- -- 25
2019-06-15 16:00:00 27.1 6 Norte 16 Noroeste 0 -- -- 25
2019-06-15 15:00:00 25.7 3 Norte 19 Este 0 -- -- 29
2019-06-15 14:00:00 23.8 6 Este 18 Norte 0 -- -- 32
2019-06-15 13:00:00 24 9 Este 18 Este 0 -- -- 34
2019-06-15 12:00:00 21.1 6 Norte 14 Noroeste 0 -- -- 38
2019-06-15 11:00:00 19.4 4 Nordeste 15 Este 0 -- -- 46
2019-06-15 10:00:00 17.1 2 Nordeste 10 Norte 0 -- -- 55
2019-06-15 09:00:00 14 3 Nordeste 6 Nordeste 0 -- -- 67
2019-06-15 08:00:00 11.4 0 Calma 2 Noroeste 0 -- -- 75
2019-06-15 07:00:00 11.1 0 Calma 6 Noroeste 0 -- -- 73
2019-06-15 06:00:00 11.4 4 Noroeste 10 Noroeste 0 -- -- 70
2019-06-15 05:00:00 12.5 5 Noroeste 10 Noroeste 0 -- -- 65
2019-06-15 04:00:00 12.7 5 Noroeste 11 Noroeste 0 -- -- 63
2019-06-15 03:00:00 13.3 4 Oeste 9 Noroeste 0 -- -- 59
2019-06-15 02:00:00 14.6 6 Noroeste 13 Noroeste 0 -- -- 55
2019-06-15 01:00:00 15.1 6 Noroeste 12 Noroeste 0 -- -- 53
2019-06-15 00:00:00 15 4 Oeste 14 Sudoeste 0 -- -- 59
2019-06-14 23:00:00 16 7 Sudoeste 19 Sudoeste 0 -- -- 55
2019-06-14 22:00:00 17.9 9 Sudoeste 19 Sudoeste 0 -- -- 50
2019-06-14 21:00:00 21.7 9 Oeste 19 Oeste 0 -- -- 33
2019-06-14 20:00:00 22.3 12 Noroeste 23 Noroeste 0 -- -- 32
2019-06-14 19:00:00 22.6 13 Noroeste 28 Oeste 0 -- -- 32
2019-06-14 18:00:00 22.6 14 Oeste 31 Noroeste 0 -- -- 31
2019-06-14 17:00:00 22.4 13 Noroeste 30 Oeste 0 -- -- 32
2019-06-14 16:00:00 22.4 12 Oeste 30 Oeste 0 -- -- 32
2019-06-14 15:00:00 21.7 15 Oeste 32 Noroeste 0 -- -- 32
2019-06-14 14:00:00 21.7 10 Oeste 31 Oeste 0 -- -- 33
2019-06-14 13:00:00 20.8 9 Oeste 23 Sudoeste 0 -- -- 35
2019-06-14 12:00:00 19.6 8 Sudoeste 24 Oeste 0 -- -- 40
2019-06-14 11:00:00 18.1 8 Oeste 17 Noroeste 0 -- -- 42
2019-06-14 10:00:00 16.5 3 Nordeste 9 Nordeste 0 -- -- 50
2019-06-14 09:00:00 13.4 2 Norte 8 Noroeste 0 -- -- 59
2019-06-14 08:00:00 10.9 2 Oeste 6 Oeste 0 -- -- 67
2019-06-14 07:00:00 10.8 4 Oeste 7 Sudoeste 0 -- -- 66
2019-06-14 06:00:00 11.6 0 Calma 4 Oeste 0 -- -- 62
2019-06-14 05:00:00 12.8 0 Calma 8 Oeste 0 -- -- 57
2019-06-14 04:00:00 13.8 2 Oeste 9 Oeste 0 -- -- 54
2019-06-14 03:00:00 15.3 3 Oeste 11 Oeste 0 -- -- 48
2019-06-14 02:00:00 15.7 4 Sudoeste 13 Oeste 0 -- -- 44
2019-06-14 01:00:00 17.8 6 Oeste 14 Oeste 0 -- -- 37
2019-06-14 00:00:00 18.2 5 Oeste 11 Sudoeste 0 -- -- 39
2019-06-13 23:00:00 19.4 6 Oeste 18 Oeste 0 -- -- 38
2019-06-13 22:00:00 21.9 8 Sudoeste 26 Sudoeste 0 -- -- 31
2019-06-13 21:00:00 24.7 12 Oeste 28 Sudoeste 0 -- -- 22
2019-06-13 20:00:00 26.8 13 Oeste 26 Oeste 0 -- -- 22
2019-06-13 19:00:00 27.7 10 Oeste 27 Sudoeste 0 -- -- 22
2019-06-13 18:00:00 27.8 10 Oeste 22 Sudoeste 0 -- -- 26
2019-06-13 17:00:00 27.1 6 Noroeste 23 Sur 0 -- -- 33
2019-06-13 16:00:00 26.6 9 Sur 25 Sur 0 -- -- 33
2019-06-13 15:00:00 25.5 7 Sur 24 Sur 0 -- -- 36
2019-06-13 14:00:00 24.6 8 Sudoeste 26 Sur 0 -- -- 41
2019-06-13 13:00:00 23.3 9 Sudoeste 22 Sur 0 -- -- 45
2019-06-13 12:00:00 22.6 10 Sur 25 Sur 0 -- -- 47
2019-06-13 11:00:00 21.1 8 Sur 18 Este 0 -- -- 48
2019-06-13 10:00:00 19.1 5 Este 14 Este 0 -- -- 46
2019-06-13 09:00:00 14.9 0 Calma 4 Nordeste 0 -- -- 49
2019-06-13 08:00:00 11.8 0 Calma 3 Oeste 0 -- -- 58
2019-06-13 07:00:00 11.7 0 Calma 6 Sudoeste 0 -- -- 57
2019-06-13 06:00:00 12.9 2 Sudoeste 5 Sudoeste 0 -- -- 53
2019-06-13 05:00:00 13.9 3 Sudoeste 5 Oeste 0 -- -- 48
2019-06-13 04:00:00 15 0 Calma 10 Noroeste 0 -- -- 44
2019-06-13 03:00:00 16.1 3 Noroeste 15 Noroeste 0 -- -- 39
2019-06-13 02:00:00 17.6 9 Noroeste 15 Noroeste 0 -- -- 37
2019-06-13 01:00:00 18.9 7 Sudoeste 16 Sudoeste 0 -- -- 53
2019-06-13 00:00:00 19.7 8 Sudoeste 17 Sudoeste 0 -- -- 50
2019-06-12 23:00:00 21.1 8 Sudoeste 19 Oeste 0 -- -- 48
2019-06-12 22:00:00 23.2 8 Oeste 19 Sudoeste 0 -- -- 43
2019-06-12 21:00:00 26.4 8 Sudoeste 20 Sur 0 -- -- 36
2019-06-12 20:00:00 27.3 10 Sur 20 Sur 0 -- -- 33
2019-06-12 19:00:00 26.8 6 Sudoeste 22 Sur 0 -- -- 29
2019-06-12 18:00:00 28.7 10 Sudoeste 25 Sudoeste 0 -- -- 26
2019-06-12 17:00:00 27.6 10 Sur 22 Sudoeste 0 -- -- 28
2019-06-12 16:00:00 27 12 Sudeste 27 Sudeste 0 -- -- 32
2019-06-12 15:00:00 26.3 11 Sudeste 23 Sudeste 0 -- -- 33
2019-06-12 14:00:00 25.7 6 Noroeste 21 Este 0 -- -- 31
2019-06-12 13:00:00 25.3 9 Este 22 Sudeste 0 -- -- 32
2019-06-12 12:00:00 24.5 9 Este 18 Sudeste 0 -- -- 32
2019-06-12 11:00:00 23 8 Este 24 Este 0 -- -- 29
2019-06-12 10:00:00 21 9 Este 18 Este 0 -- -- 32
2019-06-12 09:00:00 17.1 0 Calma 5 Nordeste 0 -- -- 33
2019-06-12 08:00:00 14.9 0 Calma 4 Este 0 -- -- 37
2019-06-12 07:00:00 14.2 0 Calma 2 Sur 0 -- -- 36
2019-06-12 06:00:00 14.6 0 Calma 4 Este 0 -- -- 36
2019-06-12 05:00:00 15.3 3 Este 7 Nordeste 0 -- -- 35
2019-06-12 04:00:00 15.1 0 Calma 4 Este 0 -- -- 34
2019-06-12 03:00:00 16.6 2 Norte 10 Norte 0 -- -- 28
2019-06-12 02:00:00 18.2 5 Norte 13 Norte 0 -- -- 25
2019-06-12 01:00:00 19.3 7 Noroeste 17 Norte 0 -- -- 23
2019-06-12 00:00:00 19.7 7 Noroeste 18 Noroeste 0 -- -- 24
2019-06-11 23:00:00 20.2 6 Noroeste 11 Norte 0 -- -- 26
2019-06-11 22:00:00 22 4 Norte 17 Norte 0 -- -- 23
2019-06-11 21:00:00 24.9 7 Norte 21 Noroeste 0 -- -- 19
2019-06-11 20:00:00 26.4 8 Norte 27 Norte 0 -- -- 20
2019-06-11 19:00:00 27 11 Norte 27 Norte 0 -- -- 21
2019-06-11 18:00:00 27.5 10 Norte 34 Noroeste 0 -- -- 22
2019-06-11 17:00:00 27.3 10 Norte 28 Noroeste 0 -- -- 26
2019-06-11 16:00:00 26.5 16 Norte 31 Noroeste 0 -- -- 28
2019-06-11 15:00:00 25.5 13 Noroeste 27 Noroeste 0 -- -- 32
2019-06-11 14:00:00 24.2 14 Noroeste 32 Norte 0 -- -- 34
2019-06-11 13:00:00 23.9 8 Norte 26 Norte 0 -- -- 35
2019-06-11 12:00:00 22.2 8 Noroeste 22 Noroeste 0 -- -- 39
2019-06-11 11:00:00 20.3 9 Norte 27 Norte 0 -- -- 41
2019-06-11 10:00:00 18.1 9 Norte 23 Noroeste 0 -- -- 45
2019-06-11 09:00:00 14.8 10 Noroeste 19 Noroeste 0 -- -- 52
2019-06-11 08:00:00 13.2 7 Noroeste 17 Noroeste 0 -- -- 55
2019-06-11 07:00:00 12.7 8 Noroeste 20 Noroeste 0 -- -- 53
2019-06-11 06:00:00 12.1 6 Noroeste 15 Noroeste 0 -- -- 56
2019-06-11 05:00:00 13 2 Noroeste 14 Noroeste 0 -- -- 51
2019-06-11 04:00:00 14.2 4 Noroeste 11 Noroeste 0 -- -- 45
2019-06-11 03:00:00 15 3 Noroeste 14 Noroeste 0 -- -- 45
2019-06-11 02:00:00 16.1 7 Noroeste 16 Noroeste 0 -- -- 44
2019-06-11 01:00:00 15.4 0 Calma 4 Sudoeste 0 -- -- 63
2019-06-11 00:00:00 16.7 0 Calma 14 Sur 0 -- -- 57
2019-06-10 23:00:00 18.3 9 Sur 18 Sur 0 -- -- 54
2019-06-10 22:00:00 19.6 12 Sur 21 Sur 0 -- -- 51
2019-06-10 21:00:00 22.6 12 Sur 24 Sur 0 -- -- 44
2019-06-10 20:00:00 25.6 13 Sur 24 Sur 0 -- -- 37
2019-06-10 19:00:00 28.9 4 Norte 24 Norte 0 -- -- 22
2019-06-10 18:00:00 28.9 7 Nordeste 20 Este 0 -- -- 23
2019-06-10 17:00:00 28.4 5 Norte 23 Noroeste 0 -- -- 21
2019-06-10 16:00:00 27.4 6 Norte 24 Noroeste 0 -- -- 25
2019-06-10 15:00:00 26.2 8 Noroeste 24 Norte 0 -- -- 25
2019-06-10 14:00:00 25.7 5 Nordeste 18 Noroeste 0 -- -- 28
2019-06-10 13:00:00 24.7 5 Este 18 Norte 0 -- -- 28
2019-06-10 12:00:00 23 5 Nordeste 20 Noroeste 0 -- -- 32
2019-06-10 11:00:00 21.1 5 Norte 19 Norte 0 -- -- 37
2019-06-10 10:00:00 18.7 9 Noroeste 19 Norte 0 -- -- 47
2019-06-10 09:00:00 15.2 5 Norte 14 Noroeste 0 -- -- 60
2019-06-10 08:00:00 13.1 4 Norte 16 Noroeste 0 -- -- 67
2019-06-10 07:00:00 12.8 4 Noroeste 13 Noroeste 0 -- -- 68
2019-06-10 06:00:00 13.2 2 Este 18 Oeste 0 -- -- 67
2019-06-10 05:00:00 14.5 7 Noroeste 17 Noroeste 0 -- -- 62
2019-06-10 04:00:00 15.2 7 Noroeste 20 Noroeste -- -- -- 59
2019-06-10 03:00:00 15.8 5 Noroeste 16 Noroeste 0 -- -- 56
2019-06-10 02:00:00 16.9 6 Noroeste 17 Norte 0 -- -- 51
2019-06-10 01:00:00 18.2 9 Noroeste 22 Noroeste 0 -- -- 45
2019-06-10 00:00:00 19.5 10 Noroeste 19 Oeste 0 -- -- 42
2019-06-09 23:00:00 20.6 11 Noroeste 22 Noroeste 0 -- -- 39
2019-06-09 22:00:00 22.1 10 Noroeste 27 Oeste 0 -- -- 34
2019-06-09 21:00:00 24.5 14 Noroeste 30 Oeste 0 -- -- 29
2019-06-09 20:00:00 26.1 16 Noroeste 36 Noroeste 0 -- -- 25
2019-06-09 19:00:00 27.2 13 Oeste 32 Noroeste 0 -- -- 23
2019-06-09 18:00:00 27.7 15 Noroeste 32 Noroeste 0 -- -- 20
2019-06-09 17:00:00 27.6 9 Oeste 29 Noroeste 0 -- -- 19
2019-06-09 16:00:00 27.2 11 Noroeste 28 Noroeste 0 -- -- 21
2019-06-09 15:00:00 26.5 9 Noroeste 24 Sudoeste 0 -- -- 23
2019-06-09 14:00:00 25.4 9 Oeste 25 Oeste 0 -- -- 27
2019-06-09 13:00:00 24.3 10 Oeste 26 Oeste 0 -- -- 30
2019-06-09 12:00:00 22.8 7 Sudoeste 15 Sudoeste 0 -- -- 37
2019-06-09 11:00:00 20.8 6 Oeste 17 Sudoeste 0 -- -- 42
2019-06-09 10:00:00 19 7 Sudoeste 17 Sudoeste 0 -- -- 51
2019-06-09 09:00:00 15.1 0 Calma 5 Nordeste 0 -- -- 57
2019-06-09 08:00:00 13.5 0 Calma 7 Sudeste 0 -- -- 60
2019-06-09 07:00:00 12.5 0 Calma 3 Noroeste 0 -- -- 61
2019-06-09 06:00:00 13.3 0 Calma 4 Oeste 0 -- -- 58
2019-06-09 05:00:00 14.4 0 Calma 7 Oeste 0 -- -- 53
2019-06-09 04:00:00 15.9 4 Oeste 8 Sudoeste 0 -- -- 45
2019-06-09 03:00:00 17 3 Sudoeste 8 Sudoeste 0 -- -- 40
2019-06-09 02:00:00 18 4 Sudoeste 11 Sudoeste 0 -- -- 36
2019-06-09 01:00:00 18.9 5 Sudoeste 9 Oeste 0 -- -- 36
2019-06-09 00:00:00 20.2 0 Calma 17 Sudoeste 0 -- -- 40
2019-06-08 23:00:00 21.7 8 Sudoeste 17 Sudoeste 0 -- -- 37
2019-06-08 22:00:00 23.2 8 Sudoeste 22 Sudoeste 0 -- -- 34
2019-06-08 21:00:00 26.6 9 Sudoeste 27 Sudoeste 0 -- -- 24
2019-06-08 20:00:00 28 10 Sudoeste 31 Sudoeste 0 -- -- 21
2019-06-08 19:00:00 28.9 12 Sur 32 Sur 0 -- -- 22
2019-06-08 18:00:00 29.9 10 Sudoeste 27 Sudoeste 0 -- -- 15
2019-06-08 17:00:00 30.1 7 Sudeste 28 Sudoeste 0 -- -- 14
2019-06-08 16:00:00 29.5 11 Sudoeste 23 Sur 0 -- -- 13
2019-06-08 15:00:00 29 5 Sur 19 Sur 0 -- -- 17
2019-06-08 14:00:00 27.2 5 Noroeste 19 Sudoeste 0 -- -- 17
2019-06-08 13:00:00 26.5 9 Sur 24 Sudoeste 0 -- -- 19
2019-06-08 12:00:00 24.9 7 Sudeste 17 Sudeste 0 -- -- 22
2019-06-08 11:00:00 23.6 5 Este 12 Norte 0 -- -- 23
2019-06-08 10:00:00 20.5 3 Nordeste 8 Este 0 -- -- 33
2019-06-08 09:00:00 16.3 2 Nordeste 5 Este 0 -- -- 41
2019-06-08 08:00:00 13.4 2 Oeste 4 Oeste 0 -- -- 48
2019-06-08 07:00:00 12.3 0 Calma 2 Noroeste 0 -- -- 49
2019-06-08 06:00:00 12.5 0 Calma 5 Oeste 0 -- -- 48
2019-06-08 05:00:00 13.3 2 Oeste 6 Noroeste 0 -- -- 46
2019-06-08 04:00:00 14.1 3 Noroeste 7 Noroeste 0 -- -- 45
2019-06-08 03:00:00 14.6 3 Noroeste 9 Nordeste 0 -- -- 42
2019-06-08 02:00:00 15.2 3 Norte 10 Norte 0 -- -- 40
2019-06-08 01:00:00 15.7 0 Calma 6 Norte 0 -- -- 37
2019-06-08 00:00:00 17.2 4 Norte 9 Noroeste 0 -- -- 33
2019-06-07 23:00:00 18.3 5 Norte 13 Norte 0 -- -- 31
2019-06-07 22:00:00 19.9 6 Norte 17 Noroeste 0 -- -- 28
2019-06-07 21:00:00 23.2 7 Norte 17 Norte 0 -- -- 23
2019-06-07 20:00:00 25.3 4 Norte 21 Norte 0 -- -- 21
2019-06-07 19:00:00 25.4 8 Norte 22 Norte 0 -- -- 20
2019-06-07 18:00:00 25.5 5 Nordeste 18 Norte 0 -- -- 21
2019-06-07 17:00:00 25.4 6 Norte 30 Oeste 0 -- -- 22
2019-06-07 16:00:00 23.4 8 Noroeste 26 Noroeste 0 -- -- 24
2019-06-07 15:00:00 22.9 7 Norte 22 Noroeste 0 -- -- 25
2019-06-07 14:00:00 21.5 5 Norte 26 Noroeste 0 -- -- 28
2019-06-07 13:00:00 20.6 6 Norte 18 Noroeste 0 -- -- 32
2019-06-07 12:00:00 19.5 7 Norte 25 Noroeste 0 -- -- 37
2019-06-07 11:00:00 16.6 10 Norte 25 Noroeste 0 -- -- 48
2019-06-07 10:00:00 15.1 8 Norte 24 Norte 0 -- -- 50
2019-06-07 09:00:00 13.2 8 Norte 19 Norte 0 -- -- 61
2019-06-07 08:00:00 11.5 8 Norte 15 Noroeste 0 -- -- 76
2019-06-07 07:00:00 11.6 7 Norte 15 Noroeste 0 -- -- 74
2019-06-07 06:00:00 12.9 6 Norte 19 Norte 0 -- -- 67
2019-06-07 05:00:00 12.8 10 Noroeste 31 Noroeste 0 -- -- 72
2019-06-07 04:00:00 14.2 15 Noroeste 35 Oeste 0 -- -- 80
2019-06-07 03:00:00 16 10 Oeste 29 Oeste 0 -- -- 70
2019-06-07 02:00:00 16 10 Oeste 20 Oeste 0 -- -- 68
2019-06-07 01:00:00 15.7 8 Sudoeste 23 Sudoeste 0 -- -- 66
2019-06-07 00:00:00 16.2 7 Sudoeste 20 Sudoeste 0 -- -- 67
2019-06-06 23:00:00 17 8 Sudoeste 20 Sudoeste 0 -- -- 64
2019-06-06 22:00:00 18.6 9 Sudoeste 25 Sudoeste 0 -- -- 56
2019-06-06 21:00:00 21.9 11 Sudoeste 28 Sudoeste 0 -- -- 42
2019-06-06 20:00:00 23.8 9 Oeste 30 Oeste 0 -- -- 33
2019-06-06 19:00:00 24.7 11 Oeste 29 Oeste 0 -- -- 27
2019-06-06 18:00:00 25.1 13 Oeste 35 Oeste 0 -- -- 25
2019-06-06 17:00:00 24.8 9 Sudoeste 27 Sudoeste 0 -- -- 21
2019-06-06 16:00:00 24.1 12 Sudoeste 30 Sudoeste 0 -- -- 22
2019-06-06 15:00:00 23.1 10 Sudoeste 32 Sudoeste 0 -- -- 24
2019-06-06 14:00:00 22.3 13 Sudoeste 31 Oeste 0 -- -- 23
2019-06-06 13:00:00 21.2 11 Sudoeste 27 Sudoeste 0 -- -- 29
2019-06-06 12:00:00 19.9 9 Sudoeste 23 Sur 0 -- -- 29
2019-06-06 11:00:00 18.4 8 Sudoeste 15 Sur 0 -- -- 36
2019-06-06 10:00:00 15.8 3 Nordeste 8 Este 0 -- -- 44
2019-06-06 09:00:00 12.6 2 Nordeste 5 Nordeste 0 -- -- 57
2019-06-06 08:00:00 10.2 0 Calma 4 Noroeste 0 -- -- 63
2019-06-06 07:00:00 10 0 Calma 3 Oeste 0 -- -- 62
2019-06-06 06:00:00 10.9 4 Noroeste 12 Noroeste 0 -- -- 58
2019-06-06 05:00:00 12 7 Noroeste 14 Noroeste 0 -- -- 54
2019-06-06 04:00:00 12.5 6 Noroeste 13 Noroeste 0 -- -- 51
2019-06-06 03:00:00 13.4 6 Noroeste 13 Noroeste 0 -- -- 46
2019-06-06 02:00:00 14.4 5 Noroeste 14 Oeste 0 -- -- 41
2019-06-06 01:00:00 15.3 6 Noroeste 10 Noroeste 0 -- -- 40
2019-06-06 00:00:00 16.4 5 Noroeste 12 Noroeste 0 -- -- 38
2019-06-05 23:00:00 17.2 5 Noroeste 10 Oeste 0 -- -- 37
2019-06-05 22:00:00 19 5 Oeste 18 Oeste 0 -- -- 35
2019-06-05 21:00:00 21.4 8 Noroeste 19 Norte 0 -- -- 29
2019-06-05 20:00:00 22.4 11 Noroeste 26 Noroeste 0 -- -- 28
2019-06-05 19:00:00 22.7 12 Noroeste 27 Noroeste 0 -- -- 27
2019-06-05 18:00:00 22.6 8 Noroeste 30 Noroeste 0 -- -- 29
2019-06-05 17:00:00 22.4 15 Noroeste 32 Noroeste 0 -- -- 28
2019-06-05 16:00:00 21.8 12 Noroeste 30 Noroeste 0 -- -- 29
2019-06-05 15:00:00 22 6 Norte 29 Noroeste 0 -- -- 30
2019-06-05 14:00:00 21.1 11 Noroeste 35 Noroeste 0 -- -- 33
2019-06-05 13:00:00 19.3 17 Noroeste 36 Noroeste 0 -- -- 36
2019-06-05 12:00:00 18.3 14 Noroeste 33 Noroeste 0 -- -- 39
2019-06-05 11:00:00 16.9 14 Noroeste 33 Noroeste 0 -- -- 44
2019-06-05 10:00:00 15.1 15 Norte 32 Noroeste 0 -- -- 48
2019-06-05 09:00:00 13.2 10 Noroeste 23 Noroeste 0 -- -- 62
2019-06-05 08:00:00 11.2 10 Oeste 21 Oeste 0 -- -- 73
2019-06-05 07:00:00 10.5 3 Oeste 19 Norte 0 -- -- 75
2019-06-05 06:00:00 11.4 5 Noroeste 19 Noroeste 0 -- -- 69
2019-06-05 05:00:00 12 9 Noroeste 22 Noroeste 0 -- -- 65
2019-06-05 04:00:00 12.8 12 Noroeste 35 Noroeste 0 -- -- 60
2019-06-05 03:00:00 14.2 16 Noroeste 36 Noroeste 0 -- -- 53
2019-06-05 02:00:00 15.9 14 Noroeste 28 Noroeste 0 -- -- 57
2019-06-05 01:00:00 17 13 Noroeste 28 Noroeste 0 -- -- 59
2019-06-05 00:00:00 17.9 13 Noroeste 32 Noroeste 0 -- -- 60
2019-06-04 23:00:00 18.5 14 Noroeste 39 Noroeste 0 -- -- 59
2019-06-04 22:00:00 19.7 17 Noroeste 36 Noroeste 0 -- -- 60
2019-06-04 21:00:00 23.1 17 Noroeste 33 Oeste 0 -- -- 49
2019-06-04 20:00:00 25.7 14 Noroeste 32 Noroeste 0 -- -- 40
2019-06-04 19:00:00 27.9 12 Oeste 30 Noroeste 0 -- -- 37
2019-06-04 18:00:00 28.1 10 Oeste 32 Sudoeste 0 -- -- 36
2019-06-04 17:00:00 29.6 14 Oeste 31 Oeste 0 -- -- 32
2019-06-04 16:00:00 29.2 12 Sudoeste 32 Sudoeste 0 -- -- 34
2019-06-04 15:00:00 28.5 10 Sudoeste 28 Sudoeste 0 -- -- 34
2019-06-04 14:00:00 28 9 Sur 27 Este 0 -- -- 36
2019-06-04 13:00:00 26.2 9 Oeste 23 Sudoeste 0 -- -- 38
2019-06-04 12:00:00 24.8 9 Oeste 18 Noroeste 0 -- -- 36
2019-06-04 11:00:00 22.9 6 Sudoeste 15 Sur 0 -- -- 46
2019-06-04 10:00:00 20.8 5 Norte 14 Norte 0 -- -- 56
2019-06-04 09:00:00 17.9 7 Noroeste 16 Noroeste 0 -- -- 67
2019-06-04 08:00:00 16.4 5 Oeste 10 Noroeste 0 -- -- 68
2019-06-04 07:00:00 15.4 0 Calma 6 Oeste 0 -- -- 66
2019-06-04 06:00:00 15.6 2 Oeste 5 Oeste 0 -- -- 61
2019-06-04 05:00:00 16.6 2 Oeste 7 Oeste 0 -- -- 52
2019-06-04 04:00:00 18 2 Oeste 6 Oeste 0 -- -- 44
2019-06-04 03:00:00 19.2 4 Oeste 10 Oeste 0 -- -- 40
2019-06-04 02:00:00 20.5 4 Oeste 10 Oeste 0 -- -- 37
2019-06-04 01:00:00 22 4 Oeste 12 Oeste 0 -- -- 35
2019-06-04 00:00:00 22.6 7 Sudoeste 15 Sudoeste 0 -- -- 34
2019-06-03 23:00:00 24 7 Sudoeste 22 Sudoeste 0 -- -- 32
2019-06-03 22:00:00 25.5 9 Sudoeste 21 Sudoeste 0 -- -- 33
2019-06-03 21:00:00 29.3 11 Sudoeste 26 Sudoeste 0 -- -- 26
2019-06-03 20:00:00 32 13 Sudoeste 30 Oeste 0 -- -- 24
2019-06-03 19:00:00 33.5 10 Sur 20 Sur 0 -- -- 18
2019-06-03 18:00:00 33.7 9 Sur 26 Oeste 0 -- -- 16
2019-06-03 17:00:00 34.1 6 Sur 21 Oeste 0 -- -- 17
2019-06-03 16:00:00 33.6 10 Sur 24 Sudoeste 0 -- -- 19
2019-06-03 15:00:00 32.8 8 Sur 20 Sudeste 0 -- -- 20
2019-06-03 14:00:00 33.7 10 Nordeste 17 Este 0 -- -- 17
2019-06-03 13:00:00 31.5 5 Sur 13 Sudeste 0 -- -- 16
2019-06-03 12:00:00 29.6 4 Este 14 Este 0 -- -- 22
2019-06-03 11:00:00 27.8 3 Nordeste 12 Este 0 -- -- 27
2019-06-03 10:00:00 24.5 2 Norte 5 Nordeste 0 -- -- 29
2019-06-03 09:00:00 20.9 0 Calma 3 Norte 0 -- -- 43
2019-06-03 08:00:00 17.5 0 Calma 2 Sudoeste 0 -- -- 50
2019-06-03 07:00:00 16.6 0 Calma 3 Sudeste 0 -- -- 49
2019-06-03 06:00:00 17 0 Calma 2 Sudeste 0 -- -- 47
2019-06-03 05:00:00 18 0 Calma 8 Sudoeste 0 -- -- 44
2019-06-03 04:00:00 19.9 0 Calma 15 Sudoeste 0 -- -- 40
2019-06-03 03:00:00 21.7 8 Sudoeste 12 Sudoeste 0 -- -- 37
2019-06-03 02:00:00 22.1 3 Sudoeste 12 Oeste 0 -- -- 37
2019-06-03 01:00:00 23.2 7 Oeste 16 Oeste 0 -- -- 35
2019-06-03 00:00:00 24.7 8 Oeste 18 Oeste 0 -- -- 32
2019-06-02 23:00:00 26.2 8 Sudoeste 16 Sudoeste 0 -- -- 30
2019-06-02 22:00:00 27.8 6 Sudoeste 15 Sudoeste 0 -- -- 27
2019-06-02 21:00:00 31.4 6 Sur 16 Este 0 -- -- 19
2019-06-02 20:00:00 32.9 9 Sudeste 22 Sudeste 0 -- -- 17
2019-06-02 19:00:00 33.9 8 Sudeste 27 Sur 0 -- -- 16
2019-06-02 18:00:00 34.2 9 Sudeste 21 Sudeste 0 -- -- 16
2019-06-02 17:00:00 33.8 10 Sur 20 Este 0 -- -- 17
2019-06-02 16:00:00 33.6 7 Este 16 Este 0 -- -- 18
2019-06-02 15:00:00 32.5 7 Sudeste 19 Este 0 -- -- 20
2019-06-02 14:00:00 31.5 7 Este 18 Sudeste 0 -- -- 21
2019-06-02 13:00:00 30.1 6 Sur 16 Nordeste 0 -- -- 22
2019-06-02 12:00:00 28.9 6 Este 14 Este 0 -- -- 25
2019-06-02 11:00:00 26.4 5 Este 14 Nordeste 0 -- -- 28
2019-06-02 10:00:00 23.6 5 Este 8 Este 0 -- -- 34
2019-06-02 09:00:00 20.6 6 Sudeste 11 Este 0 -- -- 39
2019-06-02 08:00:00 17.3 0 Calma 5 Sudeste 0 -- -- 52
2019-06-02 07:00:00 16 0 Calma 6 Sudeste 0 -- -- 51
2019-06-02 06:00:00 16.3 0 Calma 3 Sudeste 0 -- -- 50
2019-06-02 05:00:00 16.7 0 Calma 4 Oeste 0 -- -- 48
2019-06-02 04:00:00 17.6 0 Calma 10 Sur 0 -- -- 47
2019-06-02 03:00:00 18.9 6 Sur 10 Sur 0 -- -- 44
2019-06-02 02:00:00 19.9 3 Sudoeste 8 Noroeste 0 -- -- 42
2019-06-02 01:00:00 21.5 3 Sur 10 Sudoeste 0 -- -- 38
2019-06-02 00:00:00 23.5 8 Sur 14 Sur 0 -- -- 32
2019-06-01 23:00:00 24.6 6 Sur 10 Sur 0 -- -- 30
2019-06-01 22:00:00 26.4 7 Sur 10 Sudoeste 0 -- -- 26
2019-06-01 21:00:00 30.5 5 Sur 19 Sur 0 -- -- 21
2019-06-01 20:00:00 31.3 8 Sur 21 Sudeste 0 -- -- 20
2019-06-01 19:00:00 31.8 12 Sur 28 Sudeste 0 -- -- 20
2019-06-01 18:00:00 32.5 10 Sudeste 26 Nordeste 0 -- -- 21
2019-06-01 17:00:00 32.4 13 Sudeste 31 Este 0 -- -- 22
2019-06-01 16:00:00 31.9 14 Este 30 Sudeste 0 -- -- 22
2019-06-01 15:00:00 31.3 9 Este 29 Este 0 -- -- 23
2019-06-01 14:00:00 30.8 10 Este 29 Nordeste 0 -- -- 25
2019-06-01 13:00:00 29.3 13 Este 24 Este 0 -- -- 25
2019-06-01 12:00:00 27.6 12 Este 24 Sudeste 0 -- -- 28
2019-06-01 11:00:00 26.2 10 Este 21 Este 0 -- -- 32
2019-06-01 10:00:00 23.2 9 Este 17 Este 0 -- -- 40
2019-06-01 09:00:00 19.8 5 Este 19 Este 0 -- -- 49
2019-06-01 08:00:00 17.2 6 Este 12 Este 0 -- -- 52
2019-06-01 07:00:00 16.2 6 Este 9 Este 0 -- -- 52
2019-06-01 06:00:00 16.8 5 Este 10 Este 0 -- -- 49
2019-06-01 05:00:00 17.4 6 Este 9 Este 0 -- -- 45
2019-06-01 04:00:00 17.9 6 Este 10 Este 0 -- -- 43
2019-06-01 03:00:00 18 0 Calma 8 Este 0 -- -- 42
2019-06-01 02:00:00 19.4 4 Sur 9 Sudeste 0 -- -- 38
2019-06-01 01:00:00 20.5 5 Sudeste 10 Este 0 -- -- 36
2019-06-01 00:00:00 21.6 5 Sudeste 12 Sudeste 0 -- -- 33
2019-05-31 23:00:00 23.4 6 Sudeste 12 Sudeste 0 -- -- 29
2019-05-31 22:00:00 25.7 5 Sur 15 Sudeste 0 -- -- 27
2019-05-31 21:00:00 29 7 Sur 21 Sur 0 -- -- 24
2019-05-31 20:00:00 30.6 8 Sur 21 Sudeste 0 -- -- 23
2019-05-31 19:00:00 31.2 9 Sur 23 Sudeste 0 -- -- 22
2019-05-31 18:00:00 31.5 11 Sudeste 30 Sudeste 0 -- -- 22
2019-05-31 17:00:00 31.4 13 Sudeste 30 Sudeste 0 -- -- 21
2019-05-31 16:00:00 31.2 14 Este 31 Sudeste 0 -- -- 22
2019-05-31 15:00:00 30.1 13 Este 34 Este 0 -- -- 23
2019-05-31 14:00:00 29.9 16 Este 30 Este 0 -- -- 23
2019-05-31 13:00:00 28.6 13 Este 30 Este 0 -- -- 25
2019-05-31 12:00:00 27.1 13 Este 27 Nordeste 0 -- -- 29
2019-05-31 11:00:00 24.8 12 Este 25 Este 0 -- -- 34
2019-05-31 10:00:00 22.1 11 Nordeste 25 Este 0 -- -- 39
2019-05-31 09:00:00 18.9 12 Este 20 Este 0 -- -- 44
2019-05-31 08:00:00 15.1 0 Calma 4 Este 0 -- -- 53
2019-05-31 07:00:00 14.2 0 Calma 2 Sudeste 0 -- -- 53
2019-05-31 06:00:00 15 2 Sudeste 6 Este 0 -- -- 52
2019-05-31 05:00:00 15 2 Este 5 Este 0 -- -- 50
2019-05-31 04:00:00 16.1 3 Sudeste 8 Este 0 -- -- 47
2019-05-31 03:00:00 16.4 4 Este 12 Este 0 -- -- 46
2019-05-31 02:00:00 17.7 6 Este 16 Este 0 -- -- 44
2019-05-31 01:00:00 18.9 6 Sudeste 13 Sudeste 0 -- -- 46
2019-05-31 00:00:00 20.6 5 Sudeste 17 Sudeste 0 -- -- 44
2019-05-30 23:00:00 22.8 7 Sudeste 14 Sudeste 0 -- -- 41
2019-05-30 22:00:00 24.9 4 Sur 9 Sur 0 -- -- 36
2019-05-30 21:00:00 28 5 Sur 17 Sudeste 0 -- -- 32
2019-05-30 20:00:00 29.3 9 Sur 22 Sudeste 0 -- -- 30
2019-05-30 19:00:00 30.4 8 Sudeste 26 Sudeste 0 -- -- 28
2019-05-30 18:00:00 30.5 12 Sudeste 27 Este 0 -- -- 28
2019-05-30 17:00:00 30.6 9 Sudeste 27 Sur 0 -- -- 27
2019-05-30 16:00:00 30.1 12 Sudeste 28 Sudeste 0 -- -- 27
2019-05-30 15:00:00 29.4 12 Este 27 Nordeste 0 -- -- 30
2019-05-30 14:00:00 28.8 11 Este 24 Este 0 -- -- 32
2019-05-30 13:00:00 27.1 11 Este 27 Este 0 -- -- 35
2019-05-30 12:00:00 24.8 16 Sudeste 31 Sudeste 0 -- -- 37
2019-05-30 11:00:00 23.3 18 Este 35 Este 0 -- -- 40
2019-05-30 10:00:00 20.6 17 Este 34 Este 0 -- -- 50
2019-05-30 09:00:00 18 17 Este 34 Este 0 -- -- 56
2019-05-30 08:00:00 16.7 12 Este 23 Este 0 -- -- 57
2019-05-30 07:00:00 16 6 Este 15 Este 0 -- -- 60
2019-05-30 06:00:00 17.1 8 Este 15 Sudeste 0 -- -- 54
2019-05-30 05:00:00 17.9 8 Sudeste 13 Este 0 -- -- 49
2019-05-30 04:00:00 19.2 9 Sudeste 15 Sudeste 0 -- -- 44
2019-05-30 03:00:00 20.3 7 Sudeste 15 Sudeste 0 -- -- 42
2019-05-30 02:00:00 21.9 9 Sudeste 17 Este 0 -- -- 32
2019-05-30 01:00:00 22.7 6 Este 12 Este 0 -- -- 26
2019-05-30 00:00:00 23.7 7 Este 11 Este 0 -- -- 25
2019-05-29 23:00:00 24.6 6 Nordeste 15 Este 0 -- -- 24
2019-05-29 22:00:00 26.7 7 Nordeste 16 Nordeste 0 -- -- 22
2019-05-29 21:00:00 31.1 4 Nordeste 17 Nordeste 0 -- -- 19
2019-05-29 20:00:00 32.8 5 Nordeste 23 Nordeste 0 -- -- 17
2019-05-29 19:00:00 33.8 6 Nordeste 21 Noroeste 0 -- -- 17
2019-05-29 18:00:00 34 5 Nordeste 20 Sudeste 0 -- -- 17
2019-05-29 17:00:00 32.4 6 Sudeste 18 Sudeste 0 -- -- 20
2019-05-29 16:00:00 31.6 6 Este 24 Este 0 -- -- 20
2019-05-29 15:00:00 30.5 5 Sudeste 33 Sur 0 -- -- 21
2019-05-29 14:00:00 30.3 10 Este 23 Este 0 -- -- 22
2019-05-29 13:00:00 29.2 13 Este 32 Nordeste 0 -- -- 23
2019-05-29 12:00:00 27.7 14 Este 33 Nordeste 0 -- -- 25
2019-05-29 11:00:00 25.9 17 Este 32 Este 0 -- -- 26
2019-05-29 10:00:00 24.2 12 Este 25 Nordeste 0 -- -- 29
2019-05-29 09:00:00 21.7 9 Nordeste 20 Nordeste 0 -- -- 31
2019-05-29 08:00:00 20 8 Nordeste 14 Este 0 -- -- 33
2019-05-29 07:00:00 19.6 8 Este 15 Nordeste 0 -- -- 32
2019-05-29 06:00:00 20.2 8 Nordeste 17 Nordeste 0 -- -- 30
2019-05-29 05:00:00 20.5 7 Este 15 Nordeste 0 -- -- 29
2019-05-29 04:00:00 20.7 8 Nordeste 11 Nordeste 0 -- -- 29
2019-05-29 03:00:00 20.6 3 Nordeste 8 Nordeste 0 -- -- 31
2019-05-29 02:00:00 21.3 2 Norte 10 Norte 0 -- -- 29
2019-05-29 01:00:00 22.6 0 Calma 14 Norte 0 -- -- 25
2019-05-29 00:00:00 23.2 3 Norte 8 Noroeste 0 -- -- 24
2019-05-28 23:00:00 24.1 2 Noroeste 12 Sur 0 -- -- 32
2019-05-28 22:00:00 26.4 6 Sudoeste 16 Sudoeste 0 -- -- 40
2019-05-28 21:00:00 29.8 10 Sudoeste 26 Sudoeste 0 -- -- 34
2019-05-28 20:00:00 33.3 7 Oeste 18 Noroeste 0 -- -- 29
2019-05-28 19:00:00 34.3 5 Noroeste 17 Norte 0 -- -- 20
2019-05-28 18:00:00 34.2 8 Norte 19 Noroeste 0 -- -- 21
2019-05-28 17:00:00 34.8 6 Nordeste 21 Oeste 0 -- -- 20
2019-05-28 16:00:00 34 6 Norte 28 Oeste 0 -- -- 22
2019-05-28 15:00:00 33.8 5 Norte 21 Noroeste 0 -- -- 19
2019-05-28 14:00:00 32.6 5 Nordeste 19 Norte 0 -- -- 23
2019-05-28 13:00:00 30.4 5 Oeste 17 Norte 0 -- -- 31
2019-05-28 12:00:00 28.6 4 Sudeste 12 Este 0 -- -- 35
2019-05-28 11:00:00 26.9 5 Este 12 Este 0 -- -- 39
2019-05-28 10:00:00 24 2 Nordeste 6 Norte 0 -- -- 46
2019-05-28 09:00:00 20 0 Calma 4 Nordeste 0 -- -- 56
2019-05-28 08:00:00 18.1 0 Calma 6 Oeste 0 -- -- 64
2019-05-28 07:00:00 17.7 3 Oeste 8 Oeste 0 -- -- 65
2019-05-28 06:00:00 18.1 3 Noroeste 9 Noroeste 0 -- -- 64
2019-05-28 05:00:00 18 3 Noroeste 8 Oeste 0 -- -- 62
2019-05-28 04:00:00 18.3 0 Calma 11 Oeste 0 -- -- 56
2019-05-28 03:00:00 19.5 4 Oeste 10 Oeste 0 -- -- 52
2019-05-28 02:00:00 21.4 2 Noroeste 24 Noroeste 0 -- -- 46
2019-05-28 01:00:00 23 9 Noroeste 23 Oeste 0 -- -- 41
2019-05-28 00:00:00 24.6 11 Noroeste 22 Noroeste 0 -- -- 40
2019-05-27 23:00:00 26 9 Noroeste 18 Oeste 0 -- -- 36
2019-05-27 22:00:00 27.6 9 Noroeste 21 Noroeste 0 -- -- 31
2019-05-27 21:00:00 30.2 8 Norte 24 Norte 0 -- -- 25
2019-05-27 20:00:00 32.4 9 Norte 29 Noroeste 0 -- -- 22
2019-05-27 19:00:00 32.7 8 Noroeste 24 Oeste 0 -- -- 23
2019-05-27 18:00:00 33.4 9 Noroeste 21 Sur 0 -- -- 22
2019-05-27 17:00:00 33.2 10 Sur 23 Sudoeste 0 -- -- 24
2019-05-27 16:00:00 32.7 12 Sudoeste 26 Sudoeste 0 -- -- 24
2019-05-27 15:00:00 32.2 10 Sur 24 Sur 0 -- -- 24
2019-05-27 14:00:00 31.4 9 Sudoeste 22 Sudoeste 0 -- -- 26
2019-05-27 13:00:00 30.6 6 Sudoeste 21 Oeste 0 -- -- 24
2019-05-27 12:00:00 30.3 4 Nordeste 12 Norte 0 -- -- 26
2019-05-27 11:00:00 27.8 3 Nordeste 9 Este 0 -- -- 29
2019-05-27 10:00:00 23.9 2 Norte 6 Norte 0 -- -- 39
2019-05-27 09:00:00 19.8 0 Calma 7 Sudoeste 0 -- -- 49
2019-05-27 08:00:00 18.8 5 Sudoeste 9 Sudoeste 0 -- -- 46
2019-05-27 07:00:00 18.1 0 Calma 4 Oeste 0 -- -- 47
2019-05-27 06:00:00 18.6 2 Oeste 5 Oeste 0 -- -- 45
2019-05-27 05:00:00 18.6 2 Sudeste 3 Sudeste 0 -- -- 45
2019-05-27 04:00:00 18.7 0 Calma 5 Sur 0 -- -- 44
2019-05-27 03:00:00 19.2 0 Calma 4 Oeste 0 -- -- 42
2019-05-27 02:00:00 20 3 Oeste 4 Oeste 0 -- -- 40
2019-05-27 01:00:00 21.1 0 Calma 3 Oeste 0 -- -- 38
2019-05-27 00:00:00 22.2 0 Calma 2 Oeste 0 -- -- 36
2019-05-26 23:00:00 23.1 0 Calma 2 Oeste 0 -- -- 34
2019-05-26 22:00:00 25.3 0 Calma 10 Norte 0 -- -- 30
2019-05-26 21:00:00 29.7 3 Norte 19 Norte 0 -- -- 24
2019-05-26 20:00:00 31.3 4 Norte 24 Norte 0 -- -- 23
2019-05-26 19:00:00 31.4 11 Norte 23 Norte 0 -- -- 21
2019-05-26 18:00:00 32.4 8 Nordeste 24 Nordeste 0 -- -- 21
2019-05-26 17:00:00 31.9 6 Norte 28 Noroeste 0 -- -- 21
2019-05-26 16:00:00 31.6 4 Norte 22 Este 0 -- -- 22
2019-05-26 15:00:00 29.7 6 Norte 23 Noroeste 0 -- -- 23
2019-05-26 14:00:00 28.8 8 Norte 28 Noroeste 0 -- -- 24
2019-05-26 13:00:00 28 4 Nordeste 21 Norte 0 -- -- 27
2019-05-26 12:00:00 27.4 4 Norte 25 Este 0 -- -- 28
2019-05-26 11:00:00 25.3 4 Nordeste 19 Nordeste 0 -- -- 32
2019-05-26 10:00:00 22.2 3 Nordeste 11 Nordeste 0 -- -- 37
2019-05-26 09:00:00 19 3 Nordeste 8 Este 0 -- -- 42
2019-05-26 08:00:00 16.5 0 Calma 4 Oeste 0 -- -- 50
2019-05-26 07:00:00 16 0 Calma 6 Norte 0 -- -- 44
2019-05-26 06:00:00 16.3 0 Calma 3 Sudeste 0 -- -- 43
2019-05-26 05:00:00 16.5 2 Sudoeste 2 Sudoeste 0 -- -- 42
2019-05-26 04:00:00 17.1 0 Calma 2 Sudoeste 0 -- -- 40
2019-05-26 03:00:00 18 0 Calma 4 Sudeste 0 -- -- 38
2019-05-26 02:00:00 18.8 0 Calma 3 Sudeste 0 -- -- 36
2019-05-26 01:00:00 19.1 0 Calma 4 Noroeste 0 -- -- 34
2019-05-26 00:00:00 19.6 0 Calma 2 Noroeste 0 -- -- 33
2019-05-25 23:00:00 20.8 0 Calma 3 Nordeste 0 -- -- 32
2019-05-25 22:00:00 23.4 0 Calma 14 Norte 0 -- -- 27
2019-05-25 21:00:00 27.3 4 Norte 19 Este 0 -- -- 23
2019-05-25 20:00:00 29.4 4 Norte 21 Este 0 -- -- 22
2019-05-25 19:00:00 29.8 6 Nordeste 22 Noroeste 0 -- -- 21
2019-05-25 18:00:00 29.9 7 Nordeste 24 Nordeste 0 -- -- 22
2019-05-25 17:00:00 29.8 5 Norte 28 Nordeste 0 -- -- 22
2019-05-25 16:00:00 29.1 9 Nordeste 26 Nordeste 0 -- -- 23
2019-05-25 15:00:00 28.9 6 Nordeste 24 Norte 0 -- -- 23
2019-05-25 14:00:00 28.1 5 Norte 22 Nordeste 0 -- -- 25
2019-05-25 13:00:00 27.4 5 Nordeste 21 Noroeste 0 -- -- 26
2019-05-25 12:00:00 25.7 5 Nordeste 19 Este 0 -- -- 33
2019-05-25 11:00:00 23.5 4 Nordeste 19 Nordeste 0 -- -- 43
2019-05-25 10:00:00 21.4 9 Nordeste 18 Este 0 -- -- 48
2019-05-25 09:00:00 18.2 3 Nordeste 9 Nordeste 0 -- -- 57
2019-05-25 08:00:00 15.4 0 Calma 3 Sudeste 0 -- -- 62
2019-05-25 07:00:00 15.4 0 Calma 5 Este 0 -- -- 61
2019-05-25 06:00:00 17.2 5 Este 12 Este 0 -- -- 49
2019-05-25 05:00:00 17.8 5 Este 10 Nordeste 0 -- -- 44
2019-05-25 04:00:00 18.1 2 Este 13 Nordeste 0 -- -- 42
2019-05-25 03:00:00 18 3 Nordeste 11 Este 0 -- -- 40
2019-05-25 02:00:00 19.5 0 Calma 10 Noroeste 0 -- -- 36
2019-05-25 01:00:00 21.7 5 Noroeste 18 Norte 0 -- -- 31
2019-05-25 00:00:00 22.6 6 Norte 27 Noroeste 0 -- -- 32
2019-05-24 23:00:00 23.5 9 Norte 25 Noroeste 0 -- -- 31
2019-05-24 22:00:00 23.8 3 Noroeste 13 Norte 0 -- -- 34
2019-05-24 21:00:00 26.1 3 Norte 14 Nordeste 0 -- -- 29
2019-05-24 20:00:00 28.5 5 Norte 23 Norte 0 -- -- 25
2019-05-24 19:00:00 29.3 5 Norte 23 Noroeste 0 -- -- 26
2019-05-24 18:00:00 29.8 6 Norte 25 Norte 0 -- -- 25
2019-05-24 17:00:00 29.2 8 Norte 27 Norte 0 -- -- 22
2019-05-24 16:00:00 28.9 10 Norte 29 Norte 0 -- -- 23
2019-05-24 15:00:00 27.1 13 Noroeste 25 Noroeste 0 -- -- 26
2019-05-24 14:00:00 26.6 5 Nordeste 26 Noroeste 0 -- -- 28
2019-05-24 13:00:00 26.1 6 Nordeste 22 Norte 0 -- -- 31
2019-05-24 12:00:00 24.4 5 Norte 26 Noroeste 0 -- -- 39
2019-05-24 11:00:00 21.7 5 Norte 20 Noroeste 0 -- -- 47
2019-05-24 10:00:00 18.5 6 Norte 15 Noroeste 0 -- -- 58
2019-05-24 09:00:00 14.8 4 Noroeste 9 Noroeste 0 -- -- 72
2019-05-24 08:00:00 13 2 Oeste 10 Noroeste 0 -- -- 81
2019-05-24 07:00:00 13 5 Noroeste 12 Noroeste 0 -- -- 83
2019-05-24 06:00:00 13.7 2 Noroeste 15 Noroeste 0 -- -- 80
2019-05-24 05:00:00 14.6 4 Noroeste 15 Noroeste 0 -- -- 78
2019-05-24 04:00:00 15 4 Noroeste 8 Noroeste 0 -- -- 73
2019-05-24 03:00:00 16.8 7 Noroeste 15 Noroeste 0 -- -- 67
2019-05-24 02:00:00 18 8 Noroeste 19 Noroeste 0 -- -- 62
2019-05-24 01:00:00 19.4 8 Noroeste 19 Norte 0 -- -- 54
2019-05-24 00:00:00 20.7 8 Noroeste 17 Noroeste 0 -- -- 37
2019-05-23 23:00:00 22 8 Noroeste 15 Oeste 0 -- -- 34
2019-05-23 22:00:00 23.7 8 Noroeste 17 Noroeste 0 -- -- 31
2019-05-23 21:00:00 25.7 10 Noroeste 24 Noroeste 0 -- -- 26
2019-05-23 20:00:00 27.2 10 Noroeste 29 Noroeste 0 -- -- 26
2019-05-23 19:00:00 29.6 7 Noroeste 20 Oeste 0 -- -- 25
2019-05-23 18:00:00 29.8 6 Oeste 27 Oeste 0 -- -- 25
2019-05-23 17:00:00 30.3 3 Oeste 22 Noroeste 0 -- -- 26
2019-05-23 16:00:00 29.4 3 Noroeste 27 Sudoeste 0 -- -- 28
2019-05-23 15:00:00 29.2 9 Oeste 22 Oeste 0 -- -- 26
2019-05-23 14:00:00 28.6 5 Sur 19 Oeste 0 -- -- 30
2019-05-23 13:00:00 27.1 5 Noroeste 16 Noroeste 0 -- -- 33
2019-05-23 12:00:00 27.1 3 Nordeste 9 Norte 0 -- -- 34
2019-05-23 11:00:00 24.5 4 Nordeste 8 Nordeste 0 -- -- 43
2019-05-23 10:00:00 21.1 0 Calma 5 Nordeste 0 -- -- 47
2019-05-23 09:00:00 17.7 0 Calma 3 Este 0 -- -- 68
2019-05-23 08:00:00 15.1 0 Calma 2 Este 0 -- -- 77
2019-05-23 07:00:00 14.8 0 Calma 3 Oeste 0 -- -- 73
2019-05-23 06:00:00 15.7 0 Calma 3 Oeste 0 -- -- 68
2019-05-23 05:00:00 16.9 3 Oeste 9 Oeste 0 -- -- 63
2019-05-23 04:00:00 17.6 5 Oeste 12 Oeste 0 -- -- 57
2019-05-23 03:00:00 18.3 5 Noroeste 13 Oeste 0 -- -- 51
2019-05-23 02:00:00 19.9 6 Noroeste 13 Noroeste 0 -- -- 44
2019-05-23 01:00:00 19.9 5 Oeste 11 Oeste 0 -- -- 46
2019-05-23 00:00:00 20.8 5 Oeste 13 Oeste 0 -- -- 44
2019-05-22 23:00:00 21.8 5 Sudoeste 12 Sudoeste 0 -- -- 44
2019-05-22 22:00:00 23.4 5 Sudoeste 16 Sudoeste 0 -- -- 40
2019-05-22 21:00:00 26.7 4 Sudoeste 13 Sudeste 0 -- -- 31
2019-05-22 20:00:00 28.3 4 Sur 18 Sudoeste 0 -- -- 27
2019-05-22 19:00:00 28.8 6 Sudoeste 21 Sudoeste 0 -- -- 28
2019-05-22 18:00:00 29.2 8 Oeste 21 Sur 0 -- -- 26
2019-05-22 17:00:00 28.5 6 Sudeste 18 Sudeste 0 -- -- 29
2019-05-22 16:00:00 28 9 Sudoeste 21 Sur 0 -- -- 30
2019-05-22 15:00:00 27.5 6 Sudeste 19 Este 0 -- -- 31
2019-05-22 14:00:00 25.9 8 Sudeste 23 Sur 0 -- -- 36
2019-05-22 13:00:00 25.1 5 Sur 15 Sudeste 0 -- -- 42
2019-05-22 12:00:00 23.4 5 Sur 17 Sudeste 0 -- -- 48
2019-05-22 11:00:00 22.6 8 Este 17 Este 0 -- -- 49
2019-05-22 10:00:00 19.6 6 Este 15 Este 0 -- -- 63
2019-05-22 09:00:00 15.5 5 Nordeste 10 Este 0 -- -- 78
2019-05-22 08:00:00 13.8 4 Este 10 Este 0 -- -- 81
2019-05-22 07:00:00 13.1 3 Este 6 Este 0 -- -- 81
2019-05-22 06:00:00 13 0 Calma 4 Sur 0 -- -- 79
2019-05-22 05:00:00 13.7 0 Calma 4 Oeste 0 -- -- 77
2019-05-22 04:00:00 13.6 0 Calma 2 Oeste 0 -- -- 80
2019-05-22 03:00:00 14.2 2 Oeste 3 Oeste 0 -- -- 79
2019-05-22 02:00:00 15.1 2 Sudeste 3 Sudeste 0 -- -- 74
2019-05-22 01:00:00 16 0 Calma 3 Noroeste 0 -- -- 70
2019-05-22 00:00:00 16.5 0 Calma 4 Sudoeste 0 -- -- 68